地図

経路データ

SID SEASON NUMBER BASIN SUBBASIN NAME ISO_TIME NATURE LAT LON WMO_WIND WMO_PRES WMO_AGENCY TRACK_TYPE DIST2LAND LANDFALL IFLAG USA_AGENCY USA_ATCF_ID USA_LAT USA_LON USA_RECORD USA_STATUS USA_WIND USA_PRES USA_SSHS USA_R34_NE USA_R34_SE USA_R34_SW USA_R34_NW USA_R50_NE USA_R50_SE USA_R50_SW USA_R50_NW USA_R64_NE USA_R64_SE USA_R64_SW USA_R64_NW USA_POCI USA_ROCI USA_RMW USA_EYE TOKYO_LAT TOKYO_LON TOKYO_GRADE TOKYO_WIND TOKYO_PRES TOKYO_R50_DIR TOKYO_R50_LONG TOKYO_R50_SHORT TOKYO_R30_DIR TOKYO_R30_LONG TOKYO_R30_SHORT TOKYO_LAND CMA_LAT CMA_LON CMA_CAT CMA_WIND CMA_PRES HKO_LAT HKO_LON HKO_CAT HKO_WIND HKO_PRES NEWDELHI_LAT NEWDELHI_LON NEWDELHI_GRADE NEWDELHI_WIND NEWDELHI_PRES NEWDELHI_CI NEWDELHI_DP NEWDELHI_POCI REUNION_LAT REUNION_LON REUNION_TYPE REUNION_WIND REUNION_PRES REUNION_TNUM REUNION_CI REUNION_RMW REUNION_R34_NE REUNION_R34_SE REUNION_R34_SW REUNION_R34_NW REUNION_R50_NE REUNION_R50_SE REUNION_R50_SW REUNION_R50_NW REUNION_R64_NE REUNION_R64_SE REUNION_R64_SW REUNION_R64_NW BOM_LAT BOM_LON BOM_TYPE BOM_WIND BOM_PRES BOM_TNUM BOM_CI BOM_RMW BOM_R34_NE BOM_R34_SE BOM_R34_SW BOM_R34_NW BOM_R50_NE BOM_R50_SE BOM_R50_SW BOM_R50_NW BOM_R64_NE BOM_R64_SE BOM_R64_SW BOM_R64_NW BOM_ROCI BOM_POCI BOM_EYE BOM_POS_METHOD BOM_PRES_METHOD NADI_LAT NADI_LON NADI_CAT NADI_WIND NADI_PRES WELLINGTON_LAT WELLINGTON_LON WELLINGTON_WIND WELLINGTON_PRES DS824_LAT DS824_LON DS824_STAGE DS824_WIND DS824_PRES TD9636_LAT TD9636_LON TD9636_STAGE TD9636_WIND TD9636_PRES TD9635_LAT TD9635_LON TD9635_WIND TD9635_PRES TD9635_ROCI NEUMANN_LAT NEUMANN_LON NEUMANN_CLASS NEUMANN_WIND NEUMANN_PRES MLC_LAT MLC_LON MLC_CLASS MLC_WIND MLC_PRES USA_GUST BOM_GUST BOM_GUST_PER REUNION_GUST REUNION_GUST_PER USA_SEAHGT USA_SEARAD_NE USA_SEARAD_SE USA_SEARAD_SW USA_SEARAD_NW STORM_SPEED STORM_DIR
1949024S18172 1949 6 SP MM NOT_NAMED 1949-01-24 00:00:00 TS -18.0000 171.700 main 442 409 O________OO___ jtwc_sh SH101949 -18.0000 171.700 -1 -18.0000 171.700 TC -18.0000 171.700 2 7 299
1949024S18172 1949 6 SP MM NOT_NAMED 1949-01-24 03:00:00 TS -17.8438 171.399 main 405 371 P________PP___ SH101949 -17.8351 171.400 -1 -17.8351 171.400 TC -17.8613 171.398 2 6 297
1949024S18172 1949 6 SP MM NOT_NAMED 1949-01-24 06:00:00 TS -17.7126 171.099 main 371 337 O________OP___ jtwc_sh SH101949 -17.7000 171.100 -1 -17.7000 171.100 TC -17.7379 171.097 2 6 291
1949024S18172 1949 6 SP MM NOT_NAMED 1949-01-24 09:00:00 TS -17.6285 170.799 main 337 308 P________PP___ SH101949 -17.6200 170.800 -1 -17.6200 170.800 TC -17.6455 170.797 2 6 281
1949024S18172 1949 6 SP MM NOT_NAMED 1949-01-24 12:00:00 TS -17.6000 170.500 main 308 278 O________OO___ jtwc_sh SH101949 -17.6000 170.500 -1 -17.6000 170.500 TC -17.6000 170.500 2 6 271
1949024S18172 1949 6 SP MM NOT_NAMED 1949-01-24 15:00:00 TS -17.6224 170.201 main 278 254 P________PP___ SH101949 -17.6275 170.200 -1 -17.6275 170.200 TC -17.6123 170.204 2 6 261
1949024S18172 1949 6 SP MM NOT_NAMED 1949-01-24 18:00:00 TS -17.6916 169.903 main 254 233 O________OP___ jtwc_sh SH101949 -17.7000 169.900 -1 -17.7000 169.900 TC -17.6748 169.908 2 6 254
1949024S18172 1949 6 SP MM NOT_NAMED 1949-01-24 21:00:00 TS -17.7815 169.607 main 233 215 P________PP___ SH101949 -17.7849 169.607 -1 -17.7849 169.607 TC -17.7748 169.607 2 6 250
1949024S18172 1949 6 SP MM NOT_NAMED 1949-01-25 00:00:00 TS -17.9000 169.300 main 215 201 O________OO___ jtwc_sh SH101949 -17.9000 169.300 -1 -17.9000 169.300 TC -17.9000 169.300 2 7 248
1949024S18172 1949 6 SP MM NOT_NAMED 1949-01-25 03:00:00 TS -18.0365 168.951 main 201 193 P________PP___ SH101949 -18.0425 168.950 -1 -18.0425 168.950 TC -18.0246 168.954 2 7 246
1949024S18172 1949 6 SP MM NOT_NAMED 1949-01-25 06:00:00 TS -18.1901 168.602 main 198 193 O________OP___ jtwc_sh SH101949 -18.2000 168.600 -1 -18.2000 168.600 TC -18.1703 168.605 2 7 245
1949024S18172 1949 6 SP MM NOT_NAMED 1949-01-25 09:00:00 TS -18.3386 168.278 main 197 197 P________PP___ SH101949 -18.3425 168.277 -1 -18.3425 168.277 TC -18.3308 168.279 2 7 241
1949024S18172 1949 6 SP MM NOT_NAMED 1949-01-25 12:00:00 TS -18.5000 168.000 main 213 212 O________OO___ jtwc_sh SH101949 -18.5000 168.000 -1 -18.5000 168.000 TC -18.5000 168.000 2 6 233
1949024S18172 1949 6 SP MM NOT_NAMED 1949-01-25 15:00:00 TS -18.6919 167.777 main 234 234 P________PP___ SH101949 -18.7000 167.770 -1 -18.7000 167.770 TC -18.6756 167.791 2 5 224
1949024S18172 1949 6 SP MM NOT_NAMED 1949-01-25 18:00:00 TS -18.8857 167.611 main 257 257 O________OP___ jtwc_sh SH101949 -18.9000 167.600 -1 -18.9000 167.600 TC -18.8572 167.632 2 5 217
1949024S18172 1949 6 SP MM NOT_NAMED 1949-01-25 21:00:00 TS -19.0500 167.492 main 279 279 P________PP___ SH101949 -19.0575 167.485 -1 -19.0575 167.485 TC -19.0351 167.507 2 4 212
1949024S18172 1949 6 SP MM NOT_NAMED 1949-01-26 00:00:00 TS -19.2000 167.400 main 290 274 O________OO___ jtwc_sh SH101949 -19.2000 167.400 -1 -19.2000 167.400 TC -19.2000 167.400 2 4 213
1949024S18172 1949 6 SP MM NOT_NAMED 1949-01-26 03:00:00 TS -19.3501 167.290 main 266 251 P________PP___ SH101949 -19.3575 167.300 -1 -19.3575 167.300 TC -19.3353 167.269 2 4 215
1949024S18172 1949 6 SP MM NOT_NAMED 1949-01-26 06:00:00 TS -19.4858 167.185 main 251 236 O________OP___ jtwc_sh SH101949 -19.5000 167.200 -1 -19.5000 167.200 TC -19.4575 167.155 2 3 218
1949024S18172 1949 6 SP MM NOT_NAMED 1949-01-26 09:00:00 TS -19.5920 167.083 main 236 221 P________PP___ SH101949 -19.6000 167.092 -1 -19.6000 167.092 TC -19.5759 167.063 2 3 219
1949024S18172 1949 6 SP MM NOT_NAMED 1949-01-26 12:00:00 TS -19.7000 167.000 main 221 206 O________OO___ jtwc_sh SH101949 -19.7000 167.000 -1 -19.7000 167.000 TC -19.7000 167.000 2 3 209
1949024S18172 1949 6 SP MM NOT_NAMED 1949-01-26 15:00:00 TS -19.8412 166.937 main 206 187 P________PP___ SH101949 -19.8425 166.928 -1 -19.8425 166.928 TC -19.8387 166.955 2 3 196
1949024S18172 1949 6 SP MM NOT_NAMED 1949-01-26 18:00:00 TS -19.9950 166.913 main 187 177 O________OP___ jtwc_sh SH101949 -20.0000 166.900 -1 -20.0000 166.900 TC -19.9849 166.940 2 3 0
1949024S18172 1949 6 SP MM NOT_NAMED 1949-01-26 21:00:00 TS -20.1462 166.937 main 177 163 P________PP___ SH101949 -20.1500 166.927 -1 -20.1500 166.927 TC -20.1387 166.955 2 3 166
1949024S18172 1949 6 SP MM NOT_NAMED 1949-01-27 00:00:00 TS -20.3000 167.000 main 163 154 O________OO___ jtwc_sh SH101949 -20.3000 167.000 -1 -20.3000 167.000 TC -20.3000 167.000 2 3 155
1949024S18172 1949 6 SP MM NOT_NAMED 1949-01-27 03:00:00 TS -20.4496 167.089 main 160 148 P________PP___ SH101949 -20.4425 167.093 -1 -20.4425 167.093 TC -20.4638 167.083 2 4 149
1949024S18172 1949 6 SP MM NOT_NAMED 1949-01-27 06:00:00 TS -20.6117 167.197 main 148 137 O________OP___ jtwc_sh SH101949 -20.6000 167.200 -1 -20.6000 167.200 TC -20.6351 167.192 2 4 149
1949024S18172 1949 6 SP MM NOT_NAMED 1949-01-27 09:00:00 TS -20.7996 167.312 main 137 129 P________PP___ SH101949 -20.7925 167.315 -1 -20.7925 167.315 TC -20.8138 167.305 2 4 154
1949024S18172 1949 6 SP MM NOT_NAMED 1949-01-27 12:00:00 TS -21.0000 167.400 main 129 113 O________OO___ jtwc_sh SH101949 -21.0000 167.400 -1 -21.0000 167.400 TC -21.0000 167.400 2 4 166
1949024S18172 1949 6 SP MM NOT_NAMED 1949-01-27 15:00:00 TS -21.1989 167.417 main 113 93 P________PP___ SH101949 -21.2000 167.408 -1 -21.2000 167.408 TC -21.1968 167.435 2 4 0
1949024S18172 1949 6 SP MM NOT_NAMED 1949-01-27 18:00:00 TS -21.4000 167.417 main 93 76 O________OP___ jtwc_sh SH101949 -21.4000 167.400 -1 -21.4000 167.400 TC -21.3999 167.450 2 4 0
1949024S18172 1949 6 SP MM NOT_NAMED 1949-01-27 21:00:00 TS -21.6010 167.445 main 76 68 P________PP___ SH101949 -21.6000 167.435 -1 -21.6000 167.435 TC -21.6031 167.466 2 4 169
1949024S18172 1949 6 SP MM NOT_NAMED 1949-01-28 00:00:00 TS -21.8000 167.500 main 68 61 O________OO___ jtwc_sh SH101949 -21.8000 167.500 -1 -21.8000 167.500 TC -21.8000 167.500 2 4 162
1949024S18172 1949 6 SP MM NOT_NAMED 1949-01-28 03:00:00 TS -22.0018 167.586 main 65 62 P________PP___ SH101949 -22.0075 167.592 -1 -22.0075 167.592 TC -21.9903 167.574 2 4 155
1949024S18172 1949 6 SP MM NOT_NAMED 1949-01-28 06:00:00 TS -22.1908 167.690 main 72 71 O________OP___ jtwc_sh SH101949 -22.2000 167.700 -1 -22.2000 167.700 TC -22.1725 167.670 2 4 151
1949024S18172 1949 6 SP MM NOT_NAMED 1949-01-28 09:00:00 TS -22.3528 167.794 main 83 83 P________PP___ SH101949 -22.3575 167.800 -1 -22.3575 167.800 TC -22.3434 167.781 2 4 148
1949024S18172 1949 6 SP MM NOT_NAMED 1949-01-28 12:00:00 TS -22.5000 167.900 main 95 95 O________OO___ jtwc_sh SH101949 -22.5000 167.900 -1 -22.5000 167.900 TC -22.5000 167.900 2 4 147
1949024S18172 1949 6 SP MM NOT_NAMED 1949-01-28 15:00:00 TS -22.6518 168.003 main 112 112 P________PP___ SH101949 -22.6575 167.993 -1 -22.6575 167.993 TC -22.6403 168.023 2 4 146
1949024S18172 1949 6 SP MM NOT_NAMED 1949-01-28 18:00:00 TS -22.7892 168.116 main 125 125 O________OP___ jtwc_sh SH101949 -22.8000 168.100 -1 -22.8000 168.100 TC -22.7676 168.147 2 3 137
1949024S18172 1949 6 SP MM NOT_NAMED 1949-01-28 21:00:00 TS -22.9020 168.251 main 149 149 P________PP___ SH101949 -22.9100 168.240 -1 -22.9100 168.240 TC -22.8860 168.273 2 3 129
1949024S18172 1949 6 SP MM NOT_NAMED 1949-01-29 00:00:00 TS -23.0000 168.400 main 163 O________OO___ jtwc_sh SH101949 -23.0000 168.400 -1 -23.0000 168.400 TC -23.0000 168.400 2 3 126

デジタル台風データ・検索

IBTrACS Databaseについて

本データベースは、米国NOAAが公開する1842年以降の世界の熱帯低気圧のベストトラックデータアーカイブInternational Best Track Archive for Climate Stewardship (IBTrACS)を、ウェブで閲覧しやすい形式に変換したものです。

最終更新日:2021-10-25